Hicks, Arkansas
Current Conditions -  °F | °C
As of 5:53 PM on Saturday 25 Oct 2014 (Local Time) from KFYV Reporting Station
Clear Clear  
Wind Chill: 78°   Ceiling: Unl
Heat Index: 80°   Visibility: 10mi
Dew Point: 64°   Wind: 5mph
Humidity: 62%   Direction: 240°WSW
Pressure: 30.05"   Gusts: NA
Location:  35.9902°N, 94.083°W
Report Text: KFYV 252253Z AUTO 24004KT 10SM CLR 26/18 A3005 RMK AO2 SLP165 T02560178
Loading
Personal Weather Stations






























Interactive Weather Map
Tropical Storm Tracking
New forecast layout! Learn more

10-Day Weather Forecast

Advertisements
Track Severe Weather on mobile